weather.gov     
National Weather Service

Terminal Aerodrome Forecast
NWS Homepage
This page is being discontinued on March 12, 2014.
The same data is available at this site. Please update your bookmarks.
Thank you, and we apologize for the inconvenience.
Please send an email to SR-SRH.Webmaster@noaa.gov with any concerns.


Current Version
Previous Version:    01  02  03  04  05  06  07  08  09  10  11  12  13  14  15  16  17  18  19  20  21  22  23  24  25  26  27  28  29  30  
   31  32  33  
[Printable]
156
FTAK31 PAJN 282300
TAFAYA
TAF
PAYA 282324Z 2900/2924 09010KT 5SM -RA BKN020 OVC060
      TEMPO 2900/2904 2SM RA BR
     FM290400 11006KT 6SM -RA BKN020 OVC040
     FM291200 VRB03KT P6SM -RA BKN010 OVC050
     FM291400 VRB03KT 4SM BCFG VCSH SCT004 BKN010 BKN060
     FM291700 VRB03KT P6SM VCSH SCT020 BKN060
      AMD LTD TO CLD VIS AND WIND 2901/2910=


U.S. Dept. of Commerce
NOAA National Weather Service
1325 East West Highway
Silver Spring, MD 20910
E-mail: w-nws.webmaster@noaa.gov
Page last modified: May 16, 2007
NATIONAL WEATHER SERVICE: for Safety, for Work, for Fun - FOR LIFE